sensor_id;sensor_type;location;lat;lon;timestamp;P1;P2;P0
72031;PMS5003;49185;42.320;23.198;2022-08-25T00:00:44;18.00;17.00;7.50
72031;PMS5003;49185;42.320;23.198;2022-08-25T00:03:10;18.67;18.00;8.00
72031;PMS5003;49185;42.320;23.198;2022-08-25T00:05:36;16.00;16.00;6.00
72031;PMS5003;49185;42.320;23.198;2022-08-25T00:08:02;17.33;15.00;6.00
72031;PMS5003;49185;42.320;23.198;2022-08-25T00:10:29;17.00;16.00;5.00
72031;PMS5003;49185;42.320;23.198;2022-08-25T00:12:54;18.00;15.67;6.00
72031;PMS5003;49185;42.320;23.198;2022-08-25T00:15:20;18.00;17.00;7.00
72031;PMS5003;49185;42.320;23.198;2022-08-25T00:17:46;17.33;17.00;8.00
72031;PMS5003;49185;42.320;23.198;2022-08-25T00:20:11;18.33;17.33;7.67
72031;PMS5003;49185;42.320;23.198;2022-08-25T00:22:36;19.00;18.00;8.00
72031;PMS5003;49185;42.320;23.198;2022-08-25T00:25:02;16.67;16.00;8.00
72031;PMS5003;49185;42.320;23.198;2022-08-25T00:27:28;16.67;15.67;6.00
72031;PMS5003;49185;42.320;23.198;2022-08-25T00:29:53;18.00;18.00;6.00
72031;PMS5003;49185;42.320;23.198;2022-08-25T00:32:19;19.00;17.33;8.33
72031;PMS5003;49185;42.320;23.198;2022-08-25T00:34:44;19.00;17.00;8.00
72031;PMS5003;49185;42.320;23.198;2022-08-25T00:37:10;21.00;18.00;7.00
72031;PMS5003;49185;42.320;23.198;2022-08-25T00:39:36;18.00;16.00;6.00
72031;PMS5003;49185;42.320;23.198;2022-08-25T00:42:03;18.00;16.00;6.00
72031;PMS5003;49185;42.320;23.198;2022-08-25T00:44:30;17.00;17.00;7.00
72031;PMS5003;49185;42.320;23.198;2022-08-25T00:46:57;17.00;16.00;7.00
72031;PMS5003;49185;42.320;23.198;2022-08-25T00:51:58;16.00;16.00;5.00
72031;PMS5003;49185;42.320;23.198;2022-08-25T00:54:56;17.00;16.00;6.00
72031;PMS5003;49185;42.320;23.198;2022-08-25T00:57:36;18.75;17.00;6.00
72031;PMS5003;49185;42.320;23.198;2022-08-25T01:00:09;18.00;17.00;6.75
72031;PMS5003;49185;42.320;23.198;2022-08-25T01:02:47;19.00;18.00;7.00
72031;PMS5003;49185;42.320;23.198;2022-08-25T01:05:13;20.00;18.33;8.00
72031;PMS5003;49185;42.320;23.198;2022-08-25T01:07:40;17.00;17.00;7.00
72031;PMS5003;49185;42.320;23.198;2022-08-25T01:10:07;17.00;17.00;7.00
72031;PMS5003;49185;42.320;23.198;2022-08-25T01:12:34;18.00;16.00;7.00
72031;PMS5003;49185;42.320;23.198;2022-08-25T01:14:59;18.00;17.00;6.00
72031;PMS5003;49185;42.320;23.198;2022-08-25T01:20:15;21.00;19.00;8.00
72031;PMS5003;49185;42.320;23.198;2022-08-25T01:22:42;20.00;20.00;8.00
72031;PMS5003;49185;42.320;23.198;2022-08-25T01:25:16;19.00;19.00;8.00
72031;PMS5003;49185;42.320;23.198;2022-08-25T01:27:46;20.00;18.00;8.00
72031;PMS5003;49185;42.320;23.198;2022-08-25T01:30:11;18.00;17.00;7.00
72031;PMS5003;49185;42.320;23.198;2022-08-25T01:32:36;19.00;19.00;7.67
72031;PMS5003;49185;42.320;23.198;2022-08-25T01:35:02;19.33;18.67;7.00
72031;PMS5003;49185;42.320;23.198;2022-08-25T01:37:28;19.00;18.00;7.00
72031;PMS5003;49185;42.320;23.198;2022-08-25T01:39:53;19.00;18.33;8.00
72031;PMS5003;49185;42.320;23.198;2022-08-25T01:42:23;19.00;18.00;7.00
72031;PMS5003;49185;42.320;23.198;2022-08-25T01:45:06;19.25;17.00;7.75
72031;PMS5003;49185;42.320;23.198;2022-08-25T01:47:32;17.50;17.00;7.75
72031;PMS5003;49185;42.320;23.198;2022-08-25T01:49:58;19.00;19.00;8.00
72031;PMS5003;49185;42.320;23.198;2022-08-25T01:52:27;17.33;17.00;7.00
72031;PMS5003;49185;42.320;23.198;2022-08-25T01:54:56;17.00;17.00;6.50
72031;PMS5003;49185;42.320;23.198;2022-08-25T01:57:21;17.00;17.00;7.00
72031;PMS5003;49185;42.320;23.198;2022-08-25T01:59:47;17.00;17.00;7.00
72031;PMS5003;49185;42.320;23.198;2022-08-25T02:02:13;20.00;18.00;8.00
72031;PMS5003;49185;42.320;23.198;2022-08-25T02:04:38;19.00;17.00;7.00
72031;PMS5003;49185;42.320;23.198;2022-08-25T02:07:05;18.00;16.00;7.00
72031;PMS5003;49185;42.320;23.198;2022-08-25T02:09:32;18.00;17.00;7.00
72031;PMS5003;49185;42.320;23.198;2022-08-25T02:11:59;17.50;17.50;7.00
72031;PMS5003;49185;42.320;23.198;2022-08-25T02:14:24;20.00;19.33;9.00
72031;PMS5003;49185;42.320;23.198;2022-08-25T02:16:51;22.00;20.00;6.00
72031;PMS5003;49185;42.320;23.198;2022-08-25T02:19:17;21.00;19.50;7.25
72031;PMS5003;49185;42.320;23.198;2022-08-25T02:21:44;21.00;19.00;8.50
72031;PMS5003;49185;42.320;23.198;2022-08-25T02:24:10;20.33;20.00;8.00
72031;PMS5003;49185;42.320;23.198;2022-08-25T02:26:35;20.75;20.25;9.00
72031;PMS5003;49185;42.320;23.198;2022-08-25T02:29:02;20.00;18.00;9.00
72031;PMS5003;49185;42.320;23.198;2022-08-25T02:31:28;20.25;19.00;9.00
72031;PMS5003;49185;42.320;23.198;2022-08-25T02:33:54;21.00;20.00;9.00
72031;PMS5003;49185;42.320;23.198;2022-08-25T02:36:20;21.25;20.00;9.00
72031;PMS5003;49185;42.320;23.198;2022-08-25T02:38:46;21.00;21.00;9.00
72031;PMS5003;49185;42.320;23.198;2022-08-25T02:41:19;23.00;21.00;10.00
72031;PMS5003;49185;42.320;23.198;2022-08-25T02:43:47;22.00;22.00;9.00
72031;PMS5003;49185;42.320;23.198;2022-08-25T02:46:13;19.25;18.25;8.75
72031;PMS5003;49185;42.320;23.198;2022-08-25T02:48:40;19.50;19.50;8.50
72031;PMS5003;49185;42.320;23.198;2022-08-25T02:51:06;19.50;19.00;7.50
72031;PMS5003;49185;42.320;23.198;2022-08-25T02:53:33;18.00;18.00;7.00
72031;PMS5003;49185;42.320;23.198;2022-08-25T02:56:01;19.00;18.00;8.00
72031;PMS5003;49185;42.320;23.198;2022-08-25T02:58:26;19.00;17.33;7.33
72031;PMS5003;49185;42.320;23.198;2022-08-25T03:00:52;21.67;18.00;7.00
72031;PMS5003;49185;42.320;23.198;2022-08-25T03:03:18;20.00;18.00;8.00
72031;PMS5003;49185;42.320;23.198;2022-08-25T03:05:44;21.00;19.75;10.00
72031;PMS5003;49185;42.320;23.198;2022-08-25T03:08:10;22.25;21.25;11.00
72031;PMS5003;49185;42.320;23.198;2022-08-25T03:10:36;21.00;19.00;9.00
72031;PMS5003;49185;42.320;23.198;2022-08-25T03:13:02;20.00;19.00;10.00
72031;PMS5003;49185;42.320;23.198;2022-08-25T03:15:28;21.00;19.00;9.00
72031;PMS5003;49185;42.320;23.198;2022-08-25T03:17:54;21.33;19.00;10.67
72031;PMS5003;49185;42.320;23.198;2022-08-25T03:20:20;21.00;18.50;9.00
72031;PMS5003;49185;42.320;23.198;2022-08-25T03:22:47;19.25;19.25;9.00
72031;PMS5003;49185;42.320;23.198;2022-08-25T03:25:12;23.00;21.00;10.00
72031;PMS5003;49185;42.320;23.198;2022-08-25T03:27:38;23.00;20.33;10.00
72031;PMS5003;49185;42.320;23.198;2022-08-25T03:30:04;23.00;22.00;9.00
72031;PMS5003;49185;42.320;23.198;2022-08-25T03:32:30;23.25;20.00;8.25
72031;PMS5003;49185;42.320;23.198;2022-08-25T03:34:56;20.00;19.00;8.33
72031;PMS5003;49185;42.320;23.198;2022-08-25T03:37:21;22.00;21.00;9.00
72031;PMS5003;49185;42.320;23.198;2022-08-25T03:39:46;23.00;22.00;9.00
72031;PMS5003;49185;42.320;23.198;2022-08-25T03:42:12;24.00;21.00;8.00
72031;PMS5003;49185;42.320;23.198;2022-08-25T03:44:37;21.67;21.00;9.00
72031;PMS5003;49185;42.320;23.198;2022-08-25T03:47:03;23.00;22.00;11.00
72031;PMS5003;49185;42.320;23.198;2022-08-25T03:49:28;22.67;21.67;11.00
72031;PMS5003;49185;42.320;23.198;2022-08-25T03:51:54;24.00;24.00;10.00
72031;PMS5003;49185;42.320;23.198;2022-08-25T03:54:21;22.67;22.67;13.33
72031;PMS5003;49185;42.320;23.198;2022-08-25T03:56:48;23.50;23.50;13.75
72031;PMS5003;49185;42.320;23.198;2022-08-25T03:59:14;22.00;22.00;13.00
72031;PMS5003;49185;42.320;23.198;2022-08-25T04:01:41;26.00;24.00;13.00
72031;PMS5003;49185;42.320;23.198;2022-08-25T04:04:08;24.00;22.00;12.75
72031;PMS5003;49185;42.320;23.198;2022-08-25T04:06:36;25.00;21.50;12.00
72031;PMS5003;49185;42.320;23.198;2022-08-25T04:09:03;22.75;22.00;11.00
72031;PMS5003;49185;42.320;23.198;2022-08-25T04:11:29;24.33;24.33;12.00
72031;PMS5003;49185;42.320;23.198;2022-08-25T04:13:55;24.00;23.00;12.00
72031;PMS5003;49185;42.320;23.198;2022-08-25T04:16:23;24.00;23.75;11.50
72031;PMS5003;49185;42.320;23.198;2022-08-25T04:18:50;26.00;26.00;14.00
72031;PMS5003;49185;42.320;23.198;2022-08-25T04:21:17;24.00;24.00;13.00
72031;PMS5003;49185;42.320;23.198;2022-08-25T04:23:44;23.00;23.00;11.00
72031;PMS5003;49185;42.320;23.198;2022-08-25T04:26:12;24.00;22.00;11.00
72031;PMS5003;49185;42.320;23.198;2022-08-25T04:28:39;24.75;23.00;11.25
72031;PMS5003;49185;42.320;23.198;2022-08-25T04:31:06;25.00;22.75;10.75
72031;PMS5003;49185;42.320;23.198;2022-08-25T04:33:33;23.00;21.25;9.00
72031;PMS5003;49185;42.320;23.198;2022-08-25T04:36:00;21.25;21.00;9.00
72031;PMS5003;49185;42.320;23.198;2022-08-25T04:38:25;22.00;22.00;11.67
72031;PMS5003;49185;42.320;23.198;2022-08-25T04:40:54;26.33;25.33;16.00
72031;PMS5003;49185;42.320;23.198;2022-08-25T04:43:30;29.00;28.00;18.00
72031;PMS5003;49185;42.320;23.198;2022-08-25T04:45:56;25.25;25.00;16.00
72031;PMS5003;49185;42.320;23.198;2022-08-25T04:48:23;24.00;24.00;15.00
72031;PMS5003;49185;42.320;23.198;2022-08-25T04:50:49;22.00;21.00;12.00
72031;PMS5003;49185;42.320;23.198;2022-08-25T04:53:15;21.50;21.00;11.00
72031;PMS5003;49185;42.320;23.198;2022-08-25T04:55:42;21.00;21.00;9.50
72031;PMS5003;49185;42.320;23.198;2022-08-25T04:58:09;20.25;19.00;8.00
72031;PMS5003;49185;42.320;23.198;2022-08-25T05:00:36;21.50;19.50;7.75
72031;PMS5003;49185;42.320;23.198;2022-08-25T05:03:02;21.00;19.75;8.50
72031;PMS5003;49185;42.320;23.198;2022-08-25T05:05:28;19.00;18.00;8.00
72031;PMS5003;49185;42.320;23.198;2022-08-25T05:07:54;20.00;17.67;8.00
72031;PMS5003;49185;42.320;23.198;2022-08-25T05:10:19;17.00;17.00;7.00
72031;PMS5003;49185;42.320;23.198;2022-08-25T05:12:44;17.00;17.00;7.00
72031;PMS5003;49185;42.320;23.198;2022-08-25T05:15:10;21.00;20.00;9.00
72031;PMS5003;49185;42.320;23.198;2022-08-25T05:17:36;19.00;18.00;10.00
72031;PMS5003;49185;42.320;23.198;2022-08-25T05:20:01;18.00;17.00;8.67
72031;PMS5003;49185;42.320;23.198;2022-08-25T05:22:27;19.67;18.67;9.00
72031;PMS5003;49185;42.320;23.198;2022-08-25T05:24:52;20.00;18.00;9.00
72031;PMS5003;49185;42.320;23.198;2022-08-25T05:27:18;20.33;18.00;10.00
72031;PMS5003;49185;42.320;23.198;2022-08-25T05:29:43;21.00;18.00;10.00
72031;PMS5003;49185;42.320;23.198;2022-08-25T05:32:09;21.00;19.00;10.00
72031;PMS5003;49185;42.320;23.198;2022-08-25T05:34:34;19.33;17.33;9.67
72031;PMS5003;49185;42.320;23.198;2022-08-25T05:36:59;20.00;18.00;9.00
72031;PMS5003;49185;42.320;23.198;2022-08-25T05:39:25;20.67;20.00;9.00
72031;PMS5003;49185;42.320;23.198;2022-08-25T05:41:50;18.00;18.00;6.33
72031;PMS5003;49185;42.320;23.198;2022-08-25T05:44:16;21.00;21.00;10.00
72031;PMS5003;49185;42.320;23.198;2022-08-25T05:46:41;21.00;20.00;10.00
72031;PMS5003;49185;42.320;23.198;2022-08-25T05:49:07;21.00;21.00;8.00
72031;PMS5003;49185;42.320;23.198;2022-08-25T05:51:32;19.67;19.67;8.00
72031;PMS5003;49185;42.320;23.198;2022-08-25T05:53:57;22.67;22.33;10.67
72031;PMS5003;49185;42.320;23.198;2022-08-25T05:56:23;22.00;22.00;11.00
72031;PMS5003;49185;42.320;23.198;2022-08-25T05:58:48;24.33;22.00;10.00
72031;PMS5003;49185;42.320;23.198;2022-08-25T06:01:18;21.67;18.00;7.00
72031;PMS5003;49185;42.320;23.198;2022-08-25T06:03:49;22.50;22.00;10.75
72031;PMS5003;49185;42.320;23.198;2022-08-25T06:06:15;20.75;19.75;10.00
72031;PMS5003;49185;42.320;23.198;2022-08-25T06:08:41;21.00;19.00;9.00
72031;PMS5003;49185;42.320;23.198;2022-08-25T06:11:08;18.50;18.50;9.00
72031;PMS5003;49185;42.320;23.198;2022-08-25T06:13:34;18.50;18.50;9.00
72031;PMS5003;49185;42.320;23.198;2022-08-25T06:16:00;18.00;18.00;10.00
72031;PMS5003;49185;42.320;23.198;2022-08-25T06:18:25;19.67;18.67;10.00
72031;PMS5003;49185;42.320;23.198;2022-08-25T06:20:51;19.00;18.00;9.00
72031;PMS5003;49185;42.320;23.198;2022-08-25T06:23:16;20.00;20.00;9.00
72031;PMS5003;49185;42.320;23.198;2022-08-25T06:25:42;21.00;19.00;10.00
72031;PMS5003;49185;42.320;23.198;2022-08-25T06:28:17;25.50;21.50;10.75
72031;PMS5003;49185;42.320;23.198;2022-08-25T06:30:44;24.00;22.00;12.00
72031;PMS5003;49185;42.320;23.198;2022-08-25T06:33:10;23.00;22.00;12.00
72031;PMS5003;49185;42.320;23.198;2022-08-25T06:35:35;20.00;19.67;10.00
72031;PMS5003;49185;42.320;23.198;2022-08-25T06:38:01;20.00;19.33;9.33
72031;PMS5003;49185;42.320;23.198;2022-08-25T06:40:26;21.00;19.00;8.00
72031;PMS5003;49185;42.320;23.198;2022-08-25T06:42:52;20.00;20.00;8.00
72031;PMS5003;49185;42.320;23.198;2022-08-25T06:45:17;18.67;17.67;6.00
72031;PMS5003;49185;42.320;23.198;2022-08-25T06:47:43;21.00;18.00;8.00
72031;PMS5003;49185;42.320;23.198;2022-08-25T06:50:08;20.00;18.00;8.33
72031;PMS5003;49185;42.320;23.198;2022-08-25T06:52:34;20.25;17.00;9.00
72031;PMS5003;49185;42.320;23.198;2022-08-25T06:55:00;23.00;20.33;10.67
72031;PMS5003;49185;42.320;23.198;2022-08-25T06:57:27;26.25;24.25;15.00
72031;PMS5003;49185;42.320;23.198;2022-08-25T07:20:27;26.00;24.00;15.00
72031;PMS5003;49185;42.320;23.198;2022-08-25T07:23:13;27.00;24.75;15.00
72031;PMS5003;49185;42.320;23.198;2022-08-25T07:29:06;25.75;24.00;12.00
72031;PMS5003;49185;42.320;23.198;2022-08-25T07:31:57;24.00;22.00;13.00
72031;PMS5003;49185;42.320;23.198;2022-08-25T07:34:44;24.00;22.00;13.00
72031;PMS5003;49185;42.320;23.198;2022-08-25T07:37:29;23.75;20.00;11.25
72031;PMS5003;49185;42.320;23.198;2022-08-25T07:40:16;25.25;23.00;13.25
72031;PMS5003;49185;42.320;23.198;2022-08-25T07:43:10;24.00;24.00;14.00
72031;PMS5003;49185;42.320;23.198;2022-08-25T07:45:56;23.00;23.00;15.00
72031;PMS5003;49185;42.320;23.198;2022-08-25T07:48:42;22.00;21.50;14.00
72031;PMS5003;49185;42.320;23.198;2022-08-25T07:51:27;22.50;22.00;14.00
72031;PMS5003;49185;42.320;23.198;2022-08-25T07:54:13;21.50;20.50;11.75
72031;PMS5003;49185;42.320;23.198;2022-08-25T07:56:59;20.50;20.25;12.00
72031;PMS5003;49185;42.320;23.198;2022-08-25T07:59:44;21.50;21.50;12.00
72031;PMS5003;49185;42.320;23.198;2022-08-25T08:02:30;25.25;24.00;13.00
72031;PMS5003;49185;42.320;23.198;2022-08-25T08:04:56;27.33;26.67;16.33
72031;PMS5003;49185;42.320;23.198;2022-08-25T08:07:24;23.67;23.67;16.00
72031;PMS5003;49185;42.320;23.198;2022-08-25T08:09:51;25.50;25.00;16.00
72031;PMS5003;49185;42.320;23.198;2022-08-25T08:12:17;23.50;23.00;16.00
72031;PMS5003;49185;42.320;23.198;2022-08-25T08:14:43;23.67;23.67;15.00
72031;PMS5003;49185;42.320;23.198;2022-08-25T08:17:10;21.75;21.00;12.25
72031;PMS5003;49185;42.320;23.198;2022-08-25T08:19:35;22.33;21.00;12.00
72031;PMS5003;49185;42.320;23.198;2022-08-25T08:22:02;23.00;20.50;13.00
72031;PMS5003;49185;42.320;23.198;2022-08-25T08:24:29;22.00;20.00;12.00
72031;PMS5003;49185;42.320;23.198;2022-08-25T08:26:56;19.25;17.50;8.50
72031;PMS5003;49185;42.320;23.198;2022-08-25T08:29:22;17.00;17.00;7.75
72031;PMS5003;49185;42.320;23.198;2022-08-25T08:31:48;22.67;22.67;12.00
72031;PMS5003;49185;42.320;23.198;2022-08-25T08:34:14;21.67;20.00;11.00
72031;PMS5003;49185;42.320;23.198;2022-08-25T08:36:40;20.00;18.25;9.00
72031;PMS5003;49185;42.320;23.198;2022-08-25T08:39:05;19.00;18.00;8.00
72031;PMS5003;49185;42.320;23.198;2022-08-25T08:44:32;18.00;17.50;10.25
72031;PMS5003;49185;42.320;23.198;2022-08-25T08:47:06;18.00;18.00;11.00
72031;PMS5003;49185;42.320;23.198;2022-08-25T08:52:03;15.50;15.25;8.00
72031;PMS5003;49185;42.320;23.198;2022-08-25T08:54:33;18.00;16.00;8.00
72031;PMS5003;49185;42.320;23.198;2022-08-25T08:57:08;18.00;17.00;6.50
72031;PMS5003;49185;42.320;23.198;2022-08-25T08:59:38;19.00;18.00;8.75
72031;PMS5003;49185;42.320;23.198;2022-08-25T09:02:18;19.00;17.00;9.00
72031;PMS5003;49185;42.320;23.198;2022-08-25T09:04:53;22.00;19.75;12.00
72031;PMS5003;49185;42.320;23.198;2022-08-25T09:07:30;22.50;21.50;14.50
72031;PMS5003;49185;42.320;23.198;2022-08-25T09:10:02;18.25;16.75;8.25
72031;PMS5003;49185;42.320;23.198;2022-08-25T09:18:20;16.00;15.25;8.00
72031;PMS5003;49185;42.320;23.198;2022-08-25T09:21:13;13.00;12.00;6.00
72031;PMS5003;49185;42.320;23.198;2022-08-25T09:26:38;15.50;13.50;6.75
72031;PMS5003;49185;42.320;23.198;2022-08-25T09:29:14;19.75;18.00;10.50
72031;PMS5003;49185;42.320;23.198;2022-08-25T09:31:47;17.00;15.00;8.00
72031;PMS5003;49185;42.320;23.198;2022-08-25T09:34:20;16.00;14.00;4.00
72031;PMS5003;49185;42.320;23.198;2022-08-25T09:36:49;16.75;14.00;7.00
72031;PMS5003;49185;42.320;23.198;2022-08-25T09:39:14;13.00;12.00;5.00
72031;PMS5003;49185;42.320;23.198;2022-08-25T09:44:20;20.00;19.00;10.00
72031;PMS5003;49185;42.320;23.198;2022-08-25T09:49:29;16.50;14.75;7.00
72031;PMS5003;49185;42.320;23.198;2022-08-25T09:52:16;17.50;17.00;8.00
72031;PMS5003;49185;42.320;23.198;2022-08-25T09:54:50;19.50;19.50;11.00
72031;PMS5003;49185;42.320;23.198;2022-08-25T09:57:36;18.75;18.00;8.75
72031;PMS5003;49185;42.320;23.198;2022-08-25T10:03:01;14.00;12.00;5.00
72031;PMS5003;49185;42.320;23.198;2022-08-25T10:06:17;14.00;10.00;5.50
72031;PMS5003;49185;42.320;23.198;2022-08-25T10:11:33;15.75;12.50;6.00
72031;PMS5003;49185;42.320;23.198;2022-08-25T10:14:16;13.50;8.75;4.25
72031;PMS5003;49185;42.320;23.198;2022-08-25T10:16:42;9.00;7.75;3.00
72031;PMS5003;49185;42.320;23.198;2022-08-25T10:19:12;10.50;9.50;5.00
72031;PMS5003;49185;42.320;23.198;2022-08-25T10:24:35;7.00;7.00;3.00
72031;PMS5003;49185;42.320;23.198;2022-08-25T10:27:08;7.00;6.50;2.00
72031;PMS5003;49185;42.320;23.198;2022-08-25T10:35:46;12.25;11.00;5.00
72031;PMS5003;49185;42.320;23.198;2022-08-25T10:41:04;8.00;6.75;4.00
72031;PMS5003;49185;42.320;23.198;2022-08-25T10:43:48;7.75;7.00;2.75
72031;PMS5003;49185;42.320;23.198;2022-08-25T10:49:21;5.50;5.00;2.00
72031;PMS5003;49185;42.320;23.198;2022-08-25T10:52:02;5.50;5.50;3.00
72031;PMS5003;49185;42.320;23.198;2022-08-25T10:54:38;5.75;5.75;3.00
72031;PMS5003;49185;42.320;23.198;2022-08-25T10:57:34;6.50;6.00;2.00
72031;PMS5003;49185;42.320;23.198;2022-08-25T11:00:22;8.25;6.75;1.75
72031;PMS5003;49185;42.320;23.198;2022-08-25T11:06:09;5.00;5.00;0.00
72031;PMS5003;49185;42.320;23.198;2022-08-25T11:08:46;6.75;6.75;0.50
72031;PMS5003;49185;42.320;23.198;2022-08-25T11:11:25;7.00;6.00;1.75
72031;PMS5003;49185;42.320;23.198;2022-08-25T11:14:03;8.00;6.00;3.00
72031;PMS5003;49185;42.320;23.198;2022-08-25T11:19:06;6.25;6.25;2.00
72031;PMS5003;49185;42.320;23.198;2022-08-25T11:21:43;6.00;6.00;2.00
72031;PMS5003;49185;42.320;23.198;2022-08-25T11:26:46;7.00;6.00;1.00
72031;PMS5003;49185;42.320;23.198;2022-08-25T11:29:18;6.00;5.00;2.00
72031;PMS5003;49185;42.320;23.198;2022-08-25T11:31:49;6.75;6.00;2.25
72031;PMS5003;49185;42.320;23.198;2022-08-25T11:34:17;6.50;6.25;2.00
72031;PMS5003;49185;42.320;23.198;2022-08-25T11:36:54;6.00;4.00;2.00
72031;PMS5003;49185;42.320;23.198;2022-08-25T11:50:29;4.25;4.25;3.00
72031;PMS5003;49185;42.320;23.198;2022-08-25T11:52:59;5.50;5.00;3.00
72031;PMS5003;49185;42.320;23.198;2022-08-25T11:58:24;5.00;4.00;2.00
72031;PMS5003;49185;42.320;23.198;2022-08-25T12:00:54;6.00;5.25;1.00
72031;PMS5003;49185;42.320;23.198;2022-08-25T12:30:20;4.00;3.00;1.00
72031;PMS5003;49185;42.320;23.198;2022-08-25T12:38:44;7.00;4.75;0.00
72031;PMS5003;49185;42.320;23.198;2022-08-25T12:41:13;7.00;6.00;1.00
72031;PMS5003;49185;42.320;23.198;2022-08-25T12:43:43;6.00;6.00;1.00
72031;PMS5003;49185;42.320;23.198;2022-08-25T12:51:24;6.50;6.25;1.25
72031;PMS5003;49185;42.320;23.198;2022-08-25T12:53:56;4.00;4.00;2.00
72031;PMS5003;49185;42.320;23.198;2022-08-25T12:56:40;6.00;5.00;1.00
72031;PMS5003;49185;42.320;23.198;2022-08-25T12:59:11;4.00;4.00;2.00
72031;PMS5003;49185;42.320;23.198;2022-08-25T13:04:37;7.00;6.00;2.00
72031;PMS5003;49185;42.320;23.198;2022-08-25T13:10:32;8.00;7.00;3.00
72031;PMS5003;49185;42.320;23.198;2022-08-25T13:13:14;6.50;6.50;3.00
72031;PMS5003;49185;42.320;23.198;2022-08-25T13:18:47;7.50;7.00;3.00
72031;PMS5003;49185;42.320;23.198;2022-08-25T13:21:35;9.00;9.00;2.33
72031;PMS5003;49185;42.320;23.198;2022-08-25T13:24:01;7.00;7.00;1.00
72031;PMS5003;49185;42.320;23.198;2022-08-25T13:26:49;7.00;7.00;2.25
72031;PMS5003;49185;42.320;23.198;2022-08-25T13:29:20;7.00;7.00;4.00
72031;PMS5003;49185;42.320;23.198;2022-08-25T13:31:59;7.00;7.00;5.00
72031;PMS5003;49185;42.320;23.198;2022-08-25T13:34:28;6.50;6.25;4.00
72031;PMS5003;49185;42.320;23.198;2022-08-25T13:36:59;7.50;7.00;3.00
72031;PMS5003;49185;42.320;23.198;2022-08-25T13:39:33;6.75;6.75;3.00
72031;PMS5003;49185;42.320;23.198;2022-08-25T13:42:02;6.00;6.00;3.00
72031;PMS5003;49185;42.320;23.198;2022-08-25T13:44:29;9.00;8.00;4.75
72031;PMS5003;49185;42.320;23.198;2022-08-25T13:49:35;8.00;8.00;2.75
72031;PMS5003;49185;42.320;23.198;2022-08-25T13:52:02;7.75;7.75;3.75
72031;PMS5003;49185;42.320;23.198;2022-08-25T13:54:29;9.00;8.00;4.00
72031;PMS5003;49185;42.320;23.198;2022-08-25T13:57:02;10.00;10.00;4.00
72031;PMS5003;49185;42.320;23.198;2022-08-25T13:59:39;9.00;8.25;4.00
72031;PMS5003;49185;42.320;23.198;2022-08-25T14:02:07;9.00;7.00;3.00
72031;PMS5003;49185;42.320;23.198;2022-08-25T14:09:50;10.25;9.00;5.00
72031;PMS5003;49185;42.320;23.198;2022-08-25T14:12:55;10.00;9.00;4.75
72031;PMS5003;49185;42.320;23.198;2022-08-25T14:17:44;9.00;8.00;5.00
72031;PMS5003;49185;42.320;23.198;2022-08-25T14:20:23;8.00;7.00;4.00
72031;PMS5003;49185;42.320;23.198;2022-08-25T14:22:51;7.00;7.00;4.00
72031;PMS5003;49185;42.320;23.198;2022-08-25T14:25:19;7.75;7.75;3.00
72031;PMS5003;49185;42.320;23.198;2022-08-25T14:27:44;8.00;8.00;3.33
72031;PMS5003;49185;42.320;23.198;2022-08-25T14:30:19;9.25;8.00;5.00
72031;PMS5003;49185;42.320;23.198;2022-08-25T14:32:45;7.33;7.00;4.00
72031;PMS5003;49185;42.320;23.198;2022-08-25T14:35:10;7.00;7.00;3.67
72031;PMS5003;49185;42.320;23.198;2022-08-25T14:37:36;8.67;7.33;3.00
72031;PMS5003;49185;42.320;23.198;2022-08-25T14:40:02;7.00;7.00;3.00
72031;PMS5003;49185;42.320;23.198;2022-08-25T14:42:28;13.50;12.25;6.75
72031;PMS5003;49185;42.320;23.198;2022-08-25T14:44:54;12.00;10.00;4.00
72031;PMS5003;49185;42.320;23.198;2022-08-25T14:47:19;9.00;8.00;3.00
72031;PMS5003;49185;42.320;23.198;2022-08-25T14:49:44;7.33;7.00;4.00
72031;PMS5003;49185;42.320;23.198;2022-08-25T14:52:17;8.00;8.00;4.00
72031;PMS5003;49185;42.320;23.198;2022-08-25T14:54:50;10.25;9.00;4.25
72031;PMS5003;49185;42.320;23.198;2022-08-25T14:57:15;13.00;11.67;4.00
72031;PMS5003;49185;42.320;23.198;2022-08-25T14:59:41;9.00;8.00;3.00
72031;PMS5003;49185;42.320;23.198;2022-08-25T15:02:06;8.00;7.67;3.33
72031;PMS5003;49185;42.320;23.198;2022-08-25T15:04:32;9.00;9.00;4.00
72031;PMS5003;49185;42.320;23.198;2022-08-25T15:07:00;7.00;7.00;4.00
72031;PMS5003;49185;42.320;23.198;2022-08-25T15:09:25;7.00;7.00;3.00
72031;PMS5003;49185;42.320;23.198;2022-08-25T15:11:54;7.33;7.00;2.67
72031;PMS5003;49185;42.320;23.198;2022-08-25T15:14:22;8.00;7.75;4.00
72031;PMS5003;49185;42.320;23.198;2022-08-25T15:16:50;9.50;9.50;4.00
72031;PMS5003;49185;42.320;23.198;2022-08-25T15:19:18;8.00;8.00;4.00
72031;PMS5003;49185;42.320;23.198;2022-08-25T15:21:45;7.00;6.50;3.50
72031;PMS5003;49185;42.320;23.198;2022-08-25T15:24:12;9.00;8.00;3.00
72031;PMS5003;49185;42.320;23.198;2022-08-25T15:26:49;8.00;7.00;3.00
72031;PMS5003;49185;42.320;23.198;2022-08-25T15:29:21;7.00;6.00;3.00
72031;PMS5003;49185;42.320;23.198;2022-08-25T15:31:48;8.00;6.25;4.00
72031;PMS5003;49185;42.320;23.198;2022-08-25T15:34:13;7.00;7.00;3.00
72031;PMS5003;49185;42.320;23.198;2022-08-25T15:36:39;7.00;6.00;3.00
72031;PMS5003;49185;42.320;23.198;2022-08-25T15:39:05;6.33;6.00;2.00
72031;PMS5003;49185;42.320;23.198;2022-08-25T15:41:31;6.00;6.00;2.00
72031;PMS5003;49185;42.320;23.198;2022-08-25T15:43:57;7.75;7.75;3.00
72031;PMS5003;49185;42.320;23.198;2022-08-25T15:46:23;8.00;8.00;4.67
72031;PMS5003;49185;42.320;23.198;2022-08-25T15:48:51;7.00;6.00;4.00
72031;PMS5003;49185;42.320;23.198;2022-08-25T15:51:16;5.00;5.00;3.00
72031;PMS5003;49185;42.320;23.198;2022-08-25T15:53:42;5.67;5.33;3.00
72031;PMS5003;49185;42.320;23.198;2022-08-25T15:56:07;6.00;6.00;2.00
72031;PMS5003;49185;42.320;23.198;2022-08-25T15:58:33;6.00;6.00;1.33
72031;PMS5003;49185;42.320;23.198;2022-08-25T16:00:58;7.67;7.33;1.00
72031;PMS5003;49185;42.320;23.198;2022-08-25T16:03:24;8.67;7.00;3.00
72031;PMS5003;49185;42.320;23.198;2022-08-25T16:05:49;7.00;6.00;4.00
72031;PMS5003;49185;42.320;23.198;2022-08-25T16:08:15;6.33;6.33;4.00
72031;PMS5003;49185;42.320;23.198;2022-08-25T16:10:41;7.00;6.00;3.00
72031;PMS5003;49185;42.320;23.198;2022-08-25T16:13:07;7.00;6.00;2.75
72031;PMS5003;49185;42.320;23.198;2022-08-25T16:15:34;8.00;8.00;3.00
72031;PMS5003;49185;42.320;23.198;2022-08-25T16:18:01;7.00;7.00;4.00
72031;PMS5003;49185;42.320;23.198;2022-08-25T16:20:28;6.75;6.50;3.00
72031;PMS5003;49185;42.320;23.198;2022-08-25T16:22:54;6.25;5.50;2.00
72031;PMS5003;49185;42.320;23.198;2022-08-25T16:25:20;7.00;7.00;2.00
72031;PMS5003;49185;42.320;23.198;2022-08-25T16:27:46;6.00;5.00;1.00
72031;PMS5003;49185;42.320;23.198;2022-08-25T16:30:12;6.00;6.00;2.00
72031;PMS5003;49185;42.320;23.198;2022-08-25T16:32:38;7.00;5.25;3.00